Terminal Aerodrome Forecast
Issued by NWS

Home | Current Version | Previous Version | Text Only | Print | Product List | Glossary On
Versions: 1 2 3 4 5 6 7 8 9 10 11 12 13 14 15 16 17 18 19 20 21 22 23 24 25
823
FTUS42 KCAE 112338
TAFOGB
TAF
KOGB 112338Z 1200/1224 VRB03KT P6SM SKC
     FM120400 08003KT P6SM OVC050
     FM121200 05008KT P6SM OVC030
     FM122200 30006KT P6SM BKN050=

USA.gov is the U.S. government's official web portal to all federal, state and local government web resources and services.